Flight Track Log - Related Links

Times and Time Zones

All times are in EDT time to prevent confusion due to time zone crossing. See the DCM7195 flight status page for this flight to view local times or setup timezone preferences in your user account.

Time Position Orientation Groundspeed Altitude Reporting Facility
EDT Latitude Longitude Course Direction KTS MPH feet Rate Location/Type
Tue 11:14:07 AM 39.5236 -84.2272 212° Southwest 160 184 3,700  Level Indianapolis Center
Tue 11:15:09 AM 39.4678 -84.2200 174° South 182 209 4,000 1,210 Climbing Indianapolis Center
Tue 11:16:11 AM 39.4053 -84.2142 176° South 215 247 6,200 1,935 Climbing Indianapolis Center
Tue 11:17:13 AM 39.3525 -84.2075 174° South 199 229 8,000 1,645 Climbing Indianapolis Center
Tue 11:18:15 AM 39.3072 -84.2458 213° Southwest 203 234 9,600 1,610 Climbing Indianapolis Center
Tue 11:19:00 AM 39.1904 -84.5520 212° Southwest  Level Estimated
Tue 11:19:16 AM 39.2717 -84.2953 227° Southwest 191 220 11,300  Level Indianapolis Center
Tue 11:20:18 AM 39.2292 -84.3392 219° Southwest 193 222 12,600 1,210 Climbing Indianapolis Center
Tue 11:21:20 AM 39.1861 -84.3853 220° Southwest 197 227 13,800 1,355 Climbing Indianapolis Center
Tue 11:22:22 AM 39.1383 -84.4428 223° Southwest 200 230 15,400 1,306 Climbing Indianapolis Center
Tue 11:23:24 AM 39.0944 -84.4867 218° Southwest 198 228 16,500 1,065 Climbing Indianapolis Center
Tue 11:24:26 AM 39.0533 -84.5403 225° Southwest 205 236 17,600 871 Climbing Indianapolis Center
Tue 11:25:28 AM 39.0125 -84.5944 226° Southwest 209 241 18,300 732 Climbing Indianapolis Center
Tue 11:26:29 AM 38.9639 -84.6383 215° Southwest 212 244 19,100 878 Climbing Indianapolis Center
Tue 11:27:31 AM 38.9164 -84.6864 218° Southwest 214 246 20,100 968 Climbing Indianapolis Center
Tue 11:28:33 AM 38.8697 -84.7397 222° Southwest 213 245 21,100 823 Climbing Indianapolis Center
Tue 11:29:35 AM 38.8264 -84.7922 223° Southwest 214 246 21,800 435 Climbing Indianapolis Center
Tue 11:30:37 AM 38.7769 -84.8456 220° Southwest 230 265 22,000 97 Climbing Indianapolis Center
Tue 11:31:39 AM 38.7200 -84.9025 218° Southwest 255 293 22,000  Level Indianapolis Center
Tue 11:32:41 AM 38.6556 -84.9772 222° Southwest 260 299 22,000  Level Indianapolis Center
Tue 11:33:42 AM 38.6033 -85.0331 220° Southwest 267 307 22,000 49 Level Indianapolis Center
Tue 11:34:44 AM 38.5369 -85.1039 220° Southwest 267 307 22,100  Climbing Indianapolis Center
Tue 11:35:46 AM 38.4797 -85.1658 220° Southwest 268 308 22,000 -48 Descending Indianapolis Center
Tue 11:36:48 AM 38.4289 -85.2239 222° Southwest 267 307 22,000  Level Indianapolis Center
Tue 11:37:50 AM 38.3731 -85.2858 221° Southwest 267 307 22,000  Level Indianapolis Center
Tue 11:38:52 AM 38.3158 -85.3481 220° Southwest 270 311 22,000  Level Indianapolis Center
Tue 11:39:54 AM 38.2486 -85.4203 220° Southwest 265 305 22,000  Level Indianapolis Center
Tue 11:40:55 AM 38.1936 -85.4808 221° Southwest 262 302 22,000  Level Indianapolis Center
Tue 11:41:57 AM 38.1375 -85.5414 220° Southwest 262 302 22,000  Level Indianapolis Center
Tue 11:42:59 AM 38.0706 -85.5831 206° Southwest 258 297 22,000  Level Indianapolis Center
Tue 11:44:01 AM 37.9994 -85.5933 186° South 256 295 22,000  Level Indianapolis Center
Tue 11:45:03 AM 37.9289 -85.6033 186° South 255 293 22,000  Level Indianapolis Center
Tue 11:46:05 AM 37.8586 -85.6128 186° South 254 292 22,000  Level Indianapolis Center
Tue 11:47:06 AM 37.7758 -85.6258 187° South 254 292 22,000  Level Indianapolis Center
Tue 11:48:08 AM 37.7053 -85.6356 186° South 255 293 22,000  Level Indianapolis Center
Tue 11:49:10 AM 37.6342 -85.6456 186° South 257 296 22,000  Level Indianapolis Center
Tue 11:50:12 AM 37.5622 -85.6558 186° South 258 297 22,000  Level Indianapolis Center
Tue 11:51:14 AM 37.4925 -85.6669 187° South 253 291 22,000  Level Indianapolis Center
Tue 11:52:15 AM 37.4219 -85.6767 186° South 254 292 22,000  Level Indianapolis Center
Tue 11:53:17 AM 37.3394 -85.6889 187° South 257 296 22,000 -97 Level Indianapolis Center
Tue 11:54:19 AM 37.2694 -85.7064 191° South 256 295 21,800 -629 Descending Indianapolis Center
Tue 11:55:21 AM 37.2081 -85.7756 222° Southwest 287 330 20,700 -1,113 Descending Indianapolis Center
Tue 11:56:23 AM 37.1444 -85.8461 221° Southwest 299 344 19,500 -1,161 Descending Indianapolis Center
Tue 11:57:25 AM 37.0797 -85.9164 221° Southwest 303 349 18,300 -976 Descending Indianapolis Center
Tue 11:58:26 AM 37.0153 -85.9875 221° Southwest 305 351 17,500 -1,122 Descending Indianapolis Center
Tue 11:59:28 AM 36.9525 -86.0567 221° Southwest 299 344 16,000 -1,597 Descending Indianapolis Center
Tue 12:00:30 PM 36.8872 -86.1269 221° Southwest 306 352 14,200 -1,742 Descending Indianapolis Center
Tue 12:01:32 PM 36.8136 -86.2064 221° Southwest 298 343 12,400 -1,597 Descending Indianapolis Center
Tue 12:02:34 PM 36.7536 -86.2725 221° Southwest 288 331 10,900 -1,463 Descending Indianapolis Center
Tue 12:03:35 PM 36.6933 -86.3383 221° Southwest 287 330 9,400 -1,415 Descending Indianapolis Center
Tue 12:04:37 PM 36.6331 -86.4039 221° Southwest 284 327 8,000 -677 Descending Indianapolis Center
Tue 12:05:39 PM 36.5881 -86.4756 232° Southwest 265 305 8,000  Level Indianapolis Center
Tue 12:06:40 PM 36.5447 -86.5444 232° Southwest 253 291 8,000 -439 Level Indianapolis Center
Tue 12:07:42 PM 36.5011 -86.6142 232° Southwest 252 290 7,100 -1,246 Descending Indianapolis Center
Tue 12:08:50 PM 36.4425 -86.7067 232° Southwest 273 314 5,300 -1,588 Descending Memphis Center

Login

Don't have an account? Register now (free) for customized features, flight alerts, and more!